createdAt,value
2022-11-05T00:00:38.631Z,100787.16
2022-11-05T00:03:24.313Z,100786.28
2022-11-05T00:06:12.100Z,100788.91
2022-11-05T00:08:58.965Z,100796.75
2022-11-05T00:11:45.801Z,100798.47
2022-11-05T00:14:31.994Z,100804.56
2022-11-05T00:16:58.891Z,100801.94
2022-11-05T00:19:25.775Z,100808.91
2022-11-05T00:22:11.457Z,100814.13
2022-11-05T00:24:56.973Z,100817.63
2022-11-05T00:27:23.854Z,100811.50
2022-11-05T00:29:50.743Z,100817.63
2022-11-05T00:32:17.616Z,100826.34
2022-11-05T00:34:44.486Z,100829.81
2022-11-05T00:37:11.355Z,100821.09
2022-11-05T00:39:38.248Z,100823.72
2022-11-05T00:42:24.093Z,100821.09
2022-11-05T00:45:03.121Z,100825.47
2022-11-05T00:47:50.949Z,100815.03
2022-11-05T00:50:21.005Z,100831.56
2022-11-05T00:52:55.479Z,100826.34
2022-11-05T00:55:28.881Z,100833.28
2022-11-05T00:57:57.046Z,100831.53
2022-11-05T01:00:26.953Z,100828.94
2022-11-05T01:02:54.001Z,100835.88
2022-11-05T01:05:20.969Z,100834.13
2022-11-05T01:07:47.843Z,100845.44
2022-11-05T01:10:14.743Z,100840.19
2022-11-05T01:12:41.605Z,100841.06
2022-11-05T01:15:10.014Z,100834.97
2022-11-05T01:17:36.883Z,100845.44
2022-11-05T01:20:04.435Z,100848.03
2022-11-05T01:22:31.342Z,100849.75
2022-11-05T01:24:58.209Z,100854.97
2022-11-05T01:27:25.067Z,100852.34
2022-11-05T01:29:51.947Z,100851.47
2022-11-05T01:32:18.803Z,100854.97
2022-11-05T01:34:45.690Z,100864.50
2022-11-05T01:37:13.686Z,100854.91
2022-11-05T01:39:40.566Z,100861.88
2022-11-05T01:42:24.058Z,100866.22
2022-11-05T01:44:57.463Z,100864.47
2022-11-05T01:47:59.543Z,100862.72
2022-11-05T01:50:36.098Z,100869.69
2022-11-05T01:53:35.897Z,100867.03
2022-11-05T01:56:11.747Z,100870.50
2022-11-05T01:59:07.011Z,100857.44
2022-11-05T02:01:34.090Z,100875.72
2022-11-05T02:04:10.474Z,100873.94
2022-11-05T02:06:46.013Z,100873.09
2022-11-05T02:09:22.659Z,100873.06
2022-11-05T02:11:51.257Z,100873.06
2022-11-05T02:14:18.457Z,100875.66
2022-11-05T02:17:03.463Z,100876.53
2022-11-05T02:20:13.859Z,100884.28
2022-11-05T02:23:11.639Z,100886.91
2022-11-05T02:26:11.412Z,100898.19
2022-11-05T02:29:15.583Z,100900.75
2022-11-05T02:32:08.632Z,100899.03
2022-11-05T02:35:22.285Z,100903.38
2022-11-05T02:38:13.479Z,100901.63
2022-11-05T02:41:02.136Z,100905.09
2022-11-05T02:44:08.115Z,100902.47
2022-11-05T02:46:57.762Z,100897.22
2022-11-05T02:49:40.207Z,100902.47
2022-11-05T02:52:16.619Z,100903.31
2022-11-05T02:55:21.626Z,100902.41
2022-11-05T02:57:48.649Z,100905.84
2022-11-05T03:00:53.237Z,100908.41
2022-11-05T03:03:25.198Z,100905.81
2022-11-05T03:06:25.850Z,100908.41
2022-11-05T03:09:52.737Z,100916.19
2022-11-05T03:12:31.340Z,100910.97
2022-11-05T03:15:44.095Z,100913.53
2022-11-05T03:18:38.774Z,100914.38
2022-11-05T03:21:14.375Z,100922.16
2022-11-05T03:23:56.926Z,100925.66
2022-11-05T03:26:29.758Z,100923.91
2022-11-05T03:29:06.621Z,100934.31
2022-11-05T03:31:37.185Z,100943.00
2022-11-05T03:34:05.870Z,100953.41
2022-11-05T03:36:41.185Z,100956.88
2022-11-05T03:39:14.573Z,100960.34
2022-11-05T03:41:45.524Z,100955.13
2022-11-05T03:44:16.776Z,100961.19
2022-11-05T03:46:49.402Z,100967.28
2022-11-05T03:49:22.781Z,100962.91
2022-11-05T03:52:17.323Z,100973.31
2022-11-05T03:54:44.484Z,100968.03
2022-11-05T03:57:20.840Z,100971.53
2022-11-05T03:59:50.382Z,100969.78
2022-11-05T04:02:20.851Z,100967.16
2022-11-05T04:04:48.058Z,100961.94
2022-11-05T04:07:33.697Z,100967.13
2022-11-05T04:10:19.163Z,100984.47
2022-11-05T04:13:04.692Z,100984.44
2022-11-05T04:15:51.542Z,100994.84
2022-11-05T04:18:18.427Z,101005.22
2022-11-05T04:21:04.119Z,100996.53
2022-11-05T04:23:49.578Z,100988.59
2022-11-05T04:26:16.490Z,101006.88
2022-11-05T04:29:07.679Z,101000.78
2022-11-05T04:31:34.800Z,101003.34
2022-11-05T04:34:01.709Z,101003.31
2022-11-05T04:36:28.937Z,101012.84
2022-11-05T04:38:55.869Z,101004.97
2022-11-05T04:41:22.809Z,101005.84
2022-11-05T04:43:49.761Z,101011.00
2022-11-05T04:46:16.663Z,100994.50
2022-11-05T04:48:43.549Z,101000.53
2022-11-05T04:51:10.425Z,101007.44
2022-11-05T04:53:37.394Z,101006.53
2022-11-05T04:56:20.296Z,100999.53
2022-11-05T04:58:47.198Z,101009.06
2022-11-05T05:01:20.311Z,101002.06
2022-11-05T05:03:49.354Z,101008.97
2022-11-05T05:06:17.907Z,101004.59
2022-11-05T05:08:50.206Z,101008.00
2022-11-05T05:11:20.244Z,101011.41
2022-11-05T05:13:47.749Z,101023.50
2022-11-05T05:16:24.695Z,101026.94
2022-11-05T05:18:52.463Z,101024.28
2022-11-05T05:21:52.909Z,101025.09
2022-11-05T05:24:21.198Z,101022.44
2022-11-05T05:26:50.132Z,101025.91
2022-11-05T05:29:18.414Z,101025.72
2022-11-05T05:31:45.634Z,101036.19
2022-11-05T05:34:14.170Z,101031.81
2022-11-05T05:36:41.286Z,101033.53
2022-11-05T05:39:10.899Z,101042.16
2022-11-05T05:41:37.952Z,101039.47
2022-11-05T05:44:06.261Z,101051.56
2022-11-05T05:46:33.200Z,101051.59
2022-11-05T05:49:00.081Z,101052.34
2022-11-05T05:51:26.964Z,101058.38
2022-11-05T05:53:54.897Z,101051.41
2022-11-05T05:56:21.815Z,101048.75
2022-11-05T05:58:48.886Z,101055.66
2022-11-05T06:01:19.681Z,101060.84
2022-11-05T06:03:48.397Z,101075.63
2022-11-05T06:06:19.934Z,101081.63
2022-11-05T06:08:47.669Z,101072.91
2022-11-05T06:11:14.995Z,101076.31
2022-11-05T06:13:41.877Z,101083.22
2022-11-05T06:16:10.363Z,101088.38
2022-11-05T06:18:37.531Z,101069.97
2022-11-05T06:21:11.328Z,101101.31
2022-11-05T06:23:40.429Z,101096.03
2022-11-05T06:26:11.673Z,101099.50
2022-11-05T06:28:38.971Z,101108.16
2022-11-05T06:31:06.152Z,101107.25
2022-11-05T06:33:33.057Z,101116.75
2022-11-05T06:36:01.900Z,101111.53
2022-11-05T06:38:29.454Z,101116.72
2022-11-05T06:40:59.433Z,101104.47
2022-11-05T06:43:27.642Z,101122.72
2022-11-05T06:45:55.863Z,101120.97
2022-11-05T06:48:22.986Z,101126.97
2022-11-05T06:50:49.878Z,101126.06
2022-11-05T06:53:16.873Z,101131.19
2022-11-05T06:55:44.881Z,101134.72
2022-11-05T06:58:11.782Z,101132.94
2022-11-05T07:00:38.761Z,101134.66
2022-11-05T07:03:08.172Z,101144.19
2022-11-05T07:05:42.403Z,101145.03
2022-11-05T07:08:09.403Z,101151.09
2022-11-05T07:10:36.280Z,101140.66
2022-11-05T07:13:07.773Z,101149.38
2022-11-05T07:15:36.609Z,101152.84
2022-11-05T07:18:04.098Z,101182.25
2022-11-05T07:20:34.302Z,101164.13
2022-11-05T07:23:07.584Z,101166.75
2022-11-05T07:25:35.023Z,101164.19
2022-11-05T07:28:03.213Z,101172.88
2022-11-05T07:30:30.835Z,101152.78
2022-11-05T07:32:57.861Z,101179.88
2022-11-05T07:35:25.676Z,101190.34
2022-11-05T07:37:54.718Z,101178.28
2022-11-05T07:40:24.672Z,101180.91
2022-11-05T07:43:00.118Z,101187.13
2022-11-05T07:45:29.848Z,101176.72
2022-11-05T07:48:00.559Z,101182.94
2022-11-05T07:50:30.987Z,101190.81
2022-11-05T07:53:06.108Z,101196.03
2022-11-05T07:55:34.078Z,101199.59
2022-11-05T07:58:00.989Z,101192.75
2022-11-05T08:00:29.630Z,101196.31
2022-11-05T08:03:12.382Z,101199.00
2022-11-05T08:05:44.611Z,101199.03
2022-11-05T08:08:16.284Z,101198.34
2022-11-05T08:10:43.323Z,101197.56
2022-11-05T08:13:11.191Z,101210.66
2022-11-05T08:15:38.948Z,101209.88
2022-11-05T08:18:09.027Z,101209.09
2022-11-05T08:20:36.870Z,101207.44
2022-11-05T08:23:03.748Z,101211.88
2022-11-05T08:25:30.702Z,101212.81
2022-11-05T08:28:04.406Z,101212.88
2022-11-05T08:30:32.257Z,101207.69
2022-11-05T08:33:02.222Z,101218.25
2022-11-05T08:35:30.037Z,101222.66
2022-11-05T08:37:59.076Z,101225.34
2022-11-05T08:40:26.467Z,101223.69
2022-11-05T08:42:53.446Z,101220.28
2022-11-05T08:45:20.347Z,101221.16
2022-11-05T08:47:47.244Z,101220.41
2022-11-05T08:50:14.140Z,101207.34
2022-11-05T08:52:41.257Z,101218.72
2022-11-05T08:55:08.930Z,101214.50
2022-11-05T08:57:35.840Z,101212.75
2022-11-05T09:00:02.847Z,101219.84
2022-11-05T09:02:29.850Z,101225.97
2022-11-05T09:04:56.774Z,101228.63
2022-11-05T09:07:23.659Z,101225.28
2022-11-05T09:09:50.525Z,101226.19
2022-11-05T09:12:17.635Z,101226.31
2022-11-05T09:14:44.512Z,101235.97
2022-11-05T09:17:21.822Z,101233.44
2022-11-05T09:19:49.127Z,101239.59
2022-11-05T09:22:16.251Z,101238.75
2022-11-05T09:24:43.656Z,101232.75
2022-11-05T09:27:15.757Z,101245.00
2022-11-05T09:29:42.665Z,101245.06
2022-11-05T09:32:09.872Z,101245.16
2022-11-05T09:34:36.862Z,101250.41
2022-11-05T09:37:03.982Z,101249.59
2022-11-05T09:39:30.866Z,101245.28
2022-11-05T09:42:05.461Z,101254.88
2022-11-05T09:44:47.580Z,101263.66
2022-11-05T09:47:24.139Z,101262.81
2022-11-05T09:49:55.109Z,101271.56
2022-11-05T09:52:26.763Z,101270.75
2022-11-05T09:54:55.440Z,101272.56
2022-11-05T09:57:30.036Z,101280.41
2022-11-05T10:00:06.323Z,101272.63
2022-11-05T10:02:48.992Z,101270.91
2022-11-05T10:05:17.062Z,101282.25
2022-11-05T10:07:57.068Z,101294.53
2022-11-05T10:10:41.026Z,101291.09
2022-11-05T10:13:30.089Z,101291.97
2022-11-05T10:16:20.505Z,101296.41
2022-11-05T10:19:12.917Z,101299.06
2022-11-05T10:22:04.884Z,101291.25
2022-11-05T10:24:28.287Z,101303.47
2022-11-05T10:26:56.366Z,101300.91
2022-11-05T10:29:29.613Z,101296.59
2022-11-05T10:32:05.483Z,101295.75
2022-11-05T10:34:36.416Z,101308.00
2022-11-05T10:37:03.685Z,101304.53
2022-11-05T10:39:32.703Z,101308.88
2022-11-05T10:42:32.917Z,101308.03
2022-11-05T10:45:47.323Z,101311.53
2022-11-05T10:49:10.335Z,101302.81
2022-11-05T10:51:37.369Z,101300.25
2022-11-05T10:54:13.745Z,101311.59
2022-11-05T10:56:41.591Z,101321.22
2022-11-05T10:59:29.935Z,101316.00
2022-11-05T11:02:20.638Z,101316.88
2022-11-05T11:04:53.151Z,101316.00
2022-11-05T11:07:24.534Z,101323.88
2022-11-05T11:09:52.118Z,101321.31
2022-11-05T11:12:26.168Z,101316.94
2022-11-05T11:15:13.097Z,101334.41
2022-11-05T11:17:40.198Z,101332.66
2022-11-05T11:20:30.986Z,101326.56
2022-11-05T11:23:14.380Z,101351.84
2022-11-05T11:26:02.725Z,101337.03
2022-11-05T11:28:44.118Z,101336.16
2022-11-05T11:31:23.735Z,101338.78
2022-11-05T11:34:04.857Z,101329.16
2022-11-05T11:36:41.415Z,101337.91
2022-11-05T11:39:20.005Z,101339.69
2022-11-05T11:41:53.009Z,101338.78
2022-11-05T11:44:28.580Z,101340.53
2022-11-05T11:47:03.875Z,101340.56
2022-11-05T11:49:54.344Z,101339.69
2022-11-05T11:52:34.755Z,101332.69
2022-11-05T11:55:28.091Z,101336.22
2022-11-05T11:58:07.485Z,101339.69
2022-11-05T12:00:42.802Z,101341.44
2022-11-05T12:03:36.296Z,101335.31
2022-11-05T12:06:36.055Z,101342.31
2022-11-05T12:09:48.204Z,101344.06
2022-11-05T12:12:18.587Z,101336.22
2022-11-05T12:15:16.708Z,101344.06
2022-11-05T12:18:05.579Z,101336.22
2022-11-05T12:20:48.474Z,101343.19
2022-11-05T12:23:38.816Z,101342.31
2022-11-05T12:27:04.521Z,101334.44
2022-11-05T12:29:58.832Z,101330.09
2022-11-05T12:32:52.008Z,101329.22
2022-11-05T12:35:47.053Z,101337.97
2022-11-05T12:39:01.622Z,101329.22
2022-11-05T12:42:12.686Z,101333.56
2022-11-05T12:45:09.781Z,101340.56
2022-11-05T12:48:03.383Z,101339.69
2022-11-05T12:50:53.504Z,101339.72
2022-11-05T12:53:38.431Z,101291.69
2022-11-05T12:56:18.996Z,101338.84
2022-11-05T12:59:01.908Z,101337.09
2022-11-05T13:01:44.876Z,101335.34
2022-11-05T13:04:34.647Z,101343.19
2022-11-05T13:07:08.576Z,101333.59
2022-11-05T13:09:50.613Z,101340.59
2022-11-05T13:12:21.602Z,101350.16
2022-11-05T13:15:06.816Z,101349.28
2022-11-05T13:18:02.243Z,101344.06
2022-11-05T13:20:38.650Z,101345.81
2022-11-05T13:23:32.512Z,101344.06
2022-11-05T13:26:09.532Z,101344.94
2022-11-05T13:29:04.001Z,101344.06
2022-11-05T13:31:38.578Z,101342.34
2022-11-05T13:34:11.485Z,101343.19
2022-11-05T13:37:10.893Z,101352.81
2022-11-05T13:39:59.903Z,101344.06
2022-11-05T13:43:02.012Z,101351.06
2022-11-05T13:45:50.430Z,101349.31
2022-11-05T13:48:26.047Z,101355.44
2022-11-05T13:51:43.903Z,101352.81
2022-11-05T13:54:50.702Z,101354.56
2022-11-05T13:57:30.780Z,101355.41
2022-11-05T14:00:18.286Z,101355.41
2022-11-05T14:02:58.048Z,101358.94
2022-11-05T14:05:37.950Z,101351.94
2022-11-05T14:08:17.621Z,101369.38
2022-11-05T14:10:58.665Z,101369.38
2022-11-05T14:13:40.708Z,101365.03
2022-11-05T14:16:20.102Z,101365.88
2022-11-05T14:19:18.892Z,101372.88
2022-11-05T14:21:54.255Z,101366.75
2022-11-05T14:24:27.917Z,101370.25
2022-11-05T14:27:00.629Z,101365.88
2022-11-05T14:29:47.615Z,101370.22
2022-11-05T14:32:17.367Z,101373.72
2022-11-05T14:34:47.649Z,101382.44
2022-11-05T14:37:26.170Z,101373.72
2022-11-05T14:39:55.163Z,101382.44
2022-11-05T14:42:31.393Z,101385.06
2022-11-05T14:45:06.169Z,101391.13
2022-11-05T14:47:38.597Z,101392.88
2022-11-05T14:50:28.204Z,101398.09
2022-11-05T14:52:58.377Z,101399.81
2022-11-05T14:55:39.424Z,101390.19
2022-11-05T14:58:38.977Z,101398.91
2022-11-05T15:01:14.940Z,101400.63
2022-11-05T15:03:46.207Z,101396.22
2022-11-05T15:06:32.030Z,101407.53
2022-11-05T15:09:27.345Z,101415.38
2022-11-05T15:12:00.189Z,101407.47
2022-11-05T15:14:40.879Z,101415.31
2022-11-05T15:17:23.067Z,101414.41
2022-11-05T15:19:52.284Z,101421.34
2022-11-05T15:22:30.086Z,101427.44
2022-11-05T15:24:57.087Z,101436.13
2022-11-05T15:27:50.323Z,101427.38
2022-11-05T15:30:21.331Z,101432.56
2022-11-05T15:32:48.443Z,101433.38
2022-11-05T15:35:40.191Z,101425.47
2022-11-05T15:38:35.579Z,101429.81
2022-11-05T15:41:15.934Z,101434.13
2022-11-05T15:43:48.334Z,101431.47
2022-11-05T15:46:21.455Z,101451.50
2022-11-05T15:48:52.759Z,101451.44
2022-11-05T15:51:22.719Z,101445.31
2022-11-05T15:54:23.856Z,101445.31
2022-11-05T15:56:40.989Z,101442.66
2022-11-05T15:59:19.175Z,101436.50
2022-11-05T16:01:51.824Z,101446.03
2022-11-05T16:04:22.170Z,101445.16
2022-11-05T16:06:52.867Z,101442.50
2022-11-05T16:09:33.598Z,101436.25
2022-11-05T16:12:19.720Z,101443.19
2022-11-05T16:15:09.096Z,101453.63
2022-11-05T16:17:54.894Z,101453.56
2022-11-05T16:20:32.243Z,101455.25
2022-11-05T16:23:22.536Z,101450.84
2022-11-05T16:25:49.606Z,101456.94
2022-11-05T16:28:26.474Z,101455.13
2022-11-05T16:30:59.630Z,101454.22
2022-11-05T16:33:44.351Z,101457.66
2022-11-05T16:36:11.803Z,101451.53
2022-11-05T16:38:38.814Z,101461.94
2022-11-05T16:41:05.752Z,101468.88
2022-11-05T16:43:33.453Z,101460.09
2022-11-05T16:46:01.470Z,101461.84
2022-11-05T16:48:28.789Z,101467.91
2022-11-05T16:50:55.737Z,101463.53
2022-11-05T16:53:22.608Z,101459.16
2022-11-05T16:55:49.919Z,101474.75
2022-11-05T16:58:25.506Z,101476.50
2022-11-05T17:01:02.712Z,101482.50
2022-11-05T17:03:29.624Z,101462.38
2022-11-05T17:05:56.503Z,101479.84
2022-11-05T17:08:23.386Z,101481.53
2022-11-05T17:10:50.271Z,101474.53
2022-11-05T17:13:18.648Z,101478.00
2022-11-05T17:15:48.357Z,101479.69
2022-11-05T17:18:18.861Z,101490.97
2022-11-05T17:20:53.085Z,101490.91
2022-11-05T17:23:24.084Z,101498.75
2022-11-05T17:25:55.401Z,101496.13
2022-11-05T17:28:23.189Z,101495.22
2022-11-05T17:30:52.924Z,101502.09
2022-11-05T17:33:21.801Z,101496.03
2022-11-05T17:35:49.090Z,101506.44
2022-11-05T17:38:16.291Z,101499.47
2022-11-05T17:40:43.191Z,101497.69
2022-11-05T17:43:10.705Z,101507.22
2022-11-05T17:45:51.749Z,101497.63
2022-11-05T17:48:20.604Z,101507.13
2022-11-05T17:50:49.999Z,101507.94
2022-11-05T17:53:18.980Z,101514.88
2022-11-05T17:55:47.166Z,101507.03
2022-11-05T17:58:14.346Z,101513.06
2022-11-05T18:00:42.927Z,101513.03
2022-11-05T18:03:11.630Z,101512.03
2022-11-05T18:05:40.022Z,101513.84
2022-11-05T18:08:08.358Z,101512.91
2022-11-05T18:10:39.991Z,101506.78
2022-11-05T18:13:06.964Z,101504.97
2022-11-05T18:15:35.478Z,101504.06
2022-11-05T18:18:02.742Z,101510.19
2022-11-05T18:20:29.662Z,101504.06
2022-11-05T18:22:56.654Z,101505.72
2022-11-05T18:25:23.728Z,101506.53
2022-11-05T18:27:50.815Z,101515.22
2022-11-05T18:30:17.932Z,101514.31
2022-11-05T18:32:45.693Z,101515.19
2022-11-05T18:35:14.514Z,101511.66
2022-11-05T18:37:41.824Z,101516.00
2022-11-05T18:40:09.426Z,101522.03
2022-11-05T18:42:36.398Z,101527.25
2022-11-05T18:45:04.781Z,101523.78
2022-11-05T18:47:33.492Z,101529.84
2022-11-05T18:50:01.249Z,101525.47
2022-11-05T18:52:31.442Z,101524.59
2022-11-05T18:54:59.413Z,101531.50
2022-11-05T18:57:27.138Z,101525.44
2022-11-05T18:59:54.036Z,101524.56
2022-11-05T19:02:21.034Z,101527.97
2022-11-05T19:05:13.823Z,101528.91
2022-11-05T19:07:39.045Z,101524.50
2022-11-05T19:10:06.976Z,101506.16
2022-11-05T19:12:33.861Z,101512.28
2022-11-05T19:15:02.601Z,101515.78
2022-11-05T19:17:30.732Z,101514.00
2022-11-05T19:19:57.616Z,101513.13
2022-11-05T19:22:25.893Z,101513.97
2022-11-05T19:24:53.058Z,101521.78
2022-11-05T19:27:20.102Z,101514.78
2022-11-05T19:29:47.573Z,101512.19
2022-11-05T19:32:14.901Z,101520.81
2022-11-05T19:34:41.807Z,101523.38
2022-11-05T19:37:08.704Z,101519.00
2022-11-05T19:39:36.126Z,101516.34
2022-11-05T19:42:03.732Z,101504.00
2022-11-05T19:44:31.099Z,101517.16
2022-11-05T19:46:58.050Z,101512.72
2022-11-05T19:49:25.202Z,101524.06
2022-11-05T19:51:52.097Z,101520.59
2022-11-05T19:54:18.962Z,101520.53
2022-11-05T19:56:45.951Z,101530.91
2022-11-05T19:59:13.156Z,101527.44
2022-11-05T20:01:40.192Z,101519.50
2022-11-05T20:04:07.247Z,101521.28
2022-11-05T20:06:40.093Z,101529.06
2022-11-05T20:09:22.506Z,101532.50
2022-11-05T20:11:54.499Z,101526.38
2022-11-05T20:14:22.730Z,101515.00
2022-11-05T20:16:50.051Z,101528.94
2022-11-05T20:19:20.715Z,101531.47
2022-11-05T20:21:47.766Z,101540.16
2022-11-05T20:24:23.608Z,101545.31
2022-11-05T20:26:54.929Z,101547.06
2022-11-05T20:29:22.923Z,101540.09
2022-11-05T20:31:50.478Z,101540.06
2022-11-05T20:34:17.366Z,101547.91
2022-11-05T20:36:44.286Z,101547.03
2022-11-05T20:39:11.989Z,101560.00
2022-11-05T20:41:38.946Z,101560.06
2022-11-05T20:44:05.863Z,101546.13
2022-11-05T20:46:32.983Z,101541.84
2022-11-05T20:48:59.915Z,101541.75
2022-11-05T20:51:26.904Z,101544.44
2022-11-05T20:53:59.639Z,101552.16
2022-11-05T20:56:33.068Z,101554.81
2022-11-05T20:59:00.732Z,101566.06
2022-11-05T21:01:31.781Z,101566.91
2022-11-05T21:03:59.753Z,101573.84
2022-11-05T21:06:26.655Z,101576.41
2022-11-05T21:08:53.954Z,101565.97
2022-11-05T21:11:21.029Z,101558.13
2022-11-05T21:13:48.633Z,101566.81
2022-11-05T21:16:18.618Z,101566.81
2022-11-05T21:18:46.849Z,101554.53
2022-11-05T21:21:17.965Z,101563.22
2022-11-05T21:23:44.948Z,101557.06
2022-11-05T21:26:14.302Z,101565.81
2022-11-05T21:28:41.800Z,101561.44
2022-11-05T21:31:10.034Z,101558.78
2022-11-05T21:33:37.302Z,101553.56
2022-11-05T21:36:11.000Z,101553.56
2022-11-05T21:38:38.410Z,101551.84
2022-11-05T21:41:06.355Z,101558.78
2022-11-05T21:43:33.937Z,101557.88
2022-11-05T21:46:03.399Z,101555.25
2022-11-05T21:48:31.118Z,101568.22
2022-11-05T21:51:16.372Z,101567.34
2022-11-05T21:54:01.814Z,101563.81
2022-11-05T21:56:47.199Z,101562.91
2022-11-05T21:59:40.490Z,101556.78
2022-11-05T22:02:11.172Z,101557.59
2022-11-05T22:04:42.001Z,101556.72
2022-11-05T22:07:10.749Z,101558.47
2022-11-05T22:09:37.791Z,101554.06
2022-11-05T22:12:04.985Z,101563.63
2022-11-05T22:14:32.038Z,101553.97
2022-11-05T22:16:59.495Z,101556.63
2022-11-05T22:19:26.860Z,101560.19
2022-11-05T22:21:54.120Z,101558.47
2022-11-05T22:24:21.259Z,101554.94
2022-11-05T22:26:48.677Z,101555.03
2022-11-05T22:29:16.697Z,101560.28
2022-11-05T22:31:43.690Z,101554.13
2022-11-05T22:34:11.731Z,101573.31
2022-11-05T22:36:38.874Z,101567.25
2022-11-05T22:39:06.392Z,101565.50
2022-11-05T22:41:33.923Z,101567.28
2022-11-05T22:44:00.911Z,101571.63
2022-11-05T22:46:27.899Z,101566.44
2022-11-05T22:48:56.198Z,101559.50
2022-11-05T22:51:27.355Z,101569.03
2022-11-05T22:53:55.090Z,101569.88
2022-11-05T22:56:25.308Z,101568.91
2022-11-05T22:58:52.983Z,101568.97
2022-11-05T23:01:22.123Z,101574.13
2022-11-05T23:03:51.517Z,101577.59
2022-11-05T23:06:44.598Z,101575.78
2022-11-05T23:09:44.462Z,101575.72
2022-11-05T23:12:30.159Z,101571.28
2022-11-05T23:14:58.952Z,101558.88
2022-11-05T23:17:44.650Z,101574.66
2022-11-05T23:20:38.429Z,101577.13
2022-11-05T23:23:28.645Z,101577.97
2022-11-05T23:26:00.207Z,101579.69
2022-11-05T23:28:27.165Z,101570.09
2022-11-05T23:31:12.965Z,101558.88
2022-11-05T23:33:39.837Z,101558.88
2022-11-05T23:36:25.798Z,101560.63
2022-11-05T23:38:52.675Z,101555.38
2022-11-05T23:41:38.175Z,101550.22
2022-11-05T23:44:23.716Z,101549.38
2022-11-05T23:47:09.371Z,101545.94
2022-11-05T23:49:36.246Z,101554.59
2022-11-05T23:52:03.123Z,101542.47
2022-11-05T23:54:30.023Z,101542.53
2022-11-05T23:56:56.892Z,101534.75
2022-11-05T23:59:23.775Z,101540.03
